createdAt,value
2022-10-17T00:09:16.706Z,15.9
2022-10-17T00:23:50.865Z,15.6
2022-10-17T00:38:23.615Z,15.6
2022-10-17T00:52:57.754Z,16.1
2022-10-17T01:07:38.153Z,16.3
2022-10-17T01:22:14.778Z,16.5
2022-10-17T01:36:44.538Z,16.4
2022-10-17T01:51:18.267Z,16.4
2022-10-17T02:05:56.278Z,16.2
2022-10-17T02:20:32.130Z,16.3
2022-10-17T02:35:02.389Z,16.3
2022-10-17T02:49:34.600Z,15.9
2022-10-17T03:04:07.198Z,15.9
2022-10-17T03:18:41.140Z,15.9
2022-10-17T03:33:15.153Z,15.8
2022-10-17T03:47:48.910Z,15.9
2022-10-17T04:02:22.189Z,16
2022-10-17T04:17:01.496Z,15.9
2022-10-17T04:31:37.627Z,16
2022-10-17T04:46:07.947Z,16.2
2022-10-17T05:00:41.723Z,16.2
2022-10-17T05:15:14.922Z,16.3
2022-10-17T05:29:47.743Z,16.3
2022-10-17T05:44:26.839Z,16.2
2022-10-17T05:59:03.044Z,16.6
2022-10-17T06:13:32.246Z,16.4
2022-10-17T06:28:05.671Z,16.4
2022-10-17T06:42:39.821Z,16.6
2022-10-17T06:57:13.148Z,16.6
2022-10-17T07:11:47.083Z,16.9
2022-10-17T07:26:27.422Z,17
2022-10-17T07:41:05.299Z,17.7
2022-10-17T07:55:36.662Z,17.9
2022-10-17T08:10:12.140Z,17.9
2022-10-17T08:24:47.382Z,17.2
2022-10-17T08:39:19.452Z,17
2022-10-17T08:53:51.680Z,17.3
2022-10-17T09:08:32.843Z,17.2
2022-10-17T09:23:11.116Z,16.9
2022-10-17T09:37:40.250Z,17.2
2022-10-17T09:52:10.230Z,17.5
2022-10-17T10:06:43.388Z,17.4
2022-10-17T10:21:17.849Z,17.4
2022-10-17T10:35:51.877Z,17.4
2022-10-17T10:50:32.583Z,17.7
2022-10-17T11:05:08.996Z,17.5
2022-10-17T11:19:39.941Z,17.3
2022-10-17T11:34:15.274Z,17.6
2022-10-17T11:48:48.378Z,17.3
2022-10-17T12:03:22.267Z,17.3
2022-10-17T12:17:55.145Z,17.3
2022-10-17T12:33:08.427Z,17.4
2022-10-17T12:47:25.162Z,17.8
2022-10-17T13:01:57.689Z,18
2022-10-17T13:16:35.438Z,18.1
2022-10-17T13:31:07.289Z,18
2022-10-17T13:45:40.113Z,18.5
2022-10-17T14:00:12.956Z,18.1
2022-10-17T14:15:11.579Z,18
2022-10-17T14:29:32.429Z,17.9
2022-10-17T14:44:11.279Z,17.8
2022-10-17T14:58:47.496Z,17.7
2022-10-17T15:13:42.253Z,17.7
2022-10-17T15:28:04.613Z,18.1
2022-10-17T15:42:39.164Z,18.3
2022-10-17T15:57:12.043Z,18.3
2022-10-17T16:11:45.246Z,18.2
2022-10-17T16:26:18.283Z,18.6
2022-10-17T16:40:51.848Z,18.9
2022-10-17T16:55:24.604Z,19.3
2022-10-17T17:09:58.051Z,18.9
2022-10-17T17:24:31.714Z,18.5
2022-10-17T17:39:04.627Z,18.5
2022-10-17T17:53:38.365Z,18.6
2022-10-17T18:08:11.825Z,19
2022-10-17T18:22:44.931Z,19.2
2022-10-17T18:37:19.211Z,19.4
2022-10-17T18:51:52.742Z,19.1
2022-10-17T19:06:31.572Z,19.2
2022-10-17T19:21:01.766Z,19
2022-10-17T19:35:42.220Z,18.8
2022-10-17T19:50:12.114Z,18.9
2022-10-17T20:05:19.760Z,18.7
2022-10-17T20:19:38.152Z,18.6
2022-10-17T20:34:10.848Z,18.5
2022-10-17T20:48:44.225Z,18.5
2022-10-17T21:03:17.117Z,18.2
2022-10-17T21:17:50.308Z,18
2022-10-17T21:32:52.623Z,17.7
2022-10-17T21:47:17.262Z,17.8
2022-10-17T22:01:53.668Z,17.7
2022-10-17T22:16:22.471Z,17.7
2022-10-17T22:31:01.568Z,17.7
2022-10-17T22:45:31.509Z,17.6
2022-10-17T23:00:04.791Z,17.5
2022-10-17T23:14:37.800Z,17.4
2022-10-17T23:29:11.645Z,17.2
2022-10-17T23:43:45.801Z,17.5
2022-10-17T23:58:19.482Z,17.5
